Terminal Aerodrome Forecast
Issued by NWS

Home | Current Version | Previous Version | Text Only | Print | Product List | Glossary On
Versions: 1 2 3 4 5 6 7 8 9 10 11 12 13 14 15 16 17 18 19
000
FTUS46 KMTR 251120
TAFSTS
TAF
KSTS 251120Z 2512/2612 18003KT P6SM VCSH SCT015 OVC025
     FM251700 17003KT P6SM VCSH BKN030 BKN050
     FM252200 18007KT P6SM VCSH SCT035 BKN050
     FM260200 17005KT P6SM SCT035 BKN050
     FM260600 15003KT P6SM BKN030 BKN050=

USA.gov is the U.S. government's official web portal to all federal, state and local government web resources and services.